Washington, LA (70589)

8:29 PM CDT on September 02, 2014 (GMT -0500)
Evangeline Sub. | Change Station
CLOSE
Current Station
Personal Weather Station
Location: Opelousas, LA
Elevation: 82 ft
Nearby Weather Stations

Elev 82 ft 30.58 °N, 92.08 °W | Updated 6 minutes ago

Thunderstorm
Thunderstorm
74.5 °F
Feels Like 72 °F
N
2.2
Wind Variable Wind from ESE

Today
High -- | Low -- °F
--% Chance of Precip.
Yesterday
High -- | Low -- °F
Precip. -- in
6:45 AM 7:29 PM
First Quarter, 57% visible
Pressure 30.02 in
Visibility 10.0 miles
Clouds Scattered Clouds 8000 ft
Scattered Clouds 12000 ft
Heat Index 72 °F
Dew Point 74 °F
Humidity 97%
Rainfall 1.25 in
Snow Depth Not available.
UV 0 out of 12
Pollen 8.20 out of 12
Air Quality Not available.
Flu Activity Not available.
METAR KOPL 030115Z AUTO 12005KT 10SM TS SCT080 SCT120 24/23 A3002 RMK AO2 LTG DSNT NE THRU S T02350225

More Conditions Fewer Conditions

Pressure 30.02 in
Visibility 10.0 miles
Clouds Scattered Clouds 8000 ft
Scattered Clouds 12000 ft
Heat Index 72 °F
Dew Point 74 °F
Humidity 97%
Rainfall 1.25 in
Snow Depth Not available.
UV 0 out of 12
Pollen 8.20 out of 12
Air Quality Not available.
Flu Activity Not available.
METAR KOPL 030115Z AUTO 12005KT 10SM TS SCT080 SCT120 24/23 A3002 RMK AO2 LTG DSNT NE THRU S T02350225

More Conditions Fewer Conditions

10-Day Weather Forecast

Almanac

Astronomy

Sep. 02, 2014 Rise Set
Actual Time 6:45 AM CDT 7:29 PM CDT
Civil Twilight 6:20 AM CDT 7:54 PM CDT
Nautical Twilight 5:51 AM CDT 8:23 PM CDT
Astronomical Twilight 5:22 AM CDT 8:52 PM CDT
Moon 2:01 PM CDT (9/2) 12:00 AM CDT (9/2)
Length of Visible Light 13h 33m
Length of Day
12h 44m
Tomorrow will be 1m 47s shorter.
First Quarter, 57% of the Moon is Illuminated
Today
First Quarter
Sep 8
Full
Sep 15
Last Quarter
Sep 24
New
Oct 1
First Quarter

Today's Extremes

State Highs State Lows

Community

WunderPhotos

Upload Photos

1,749,826 photos uploaded!

Nearby

Snow Depth

Station Depth Elevation
No new snow has been reported.

Earthquake Activity

City Distance Mag. Time & Date
No recent earthquake activity has been reported nearby.
Minimum magnitude displayed is 2.5.

Coastal Water Temperatures

Place Temperature
No Stations Reporting

Nearby Weather Stations